createdAt,value
2018-03-21T00:00:10.456Z,16.60
2018-03-21T00:00:42.191Z,16.60
2018-03-21T00:01:13.922Z,16.60
2018-03-21T00:01:46.421Z,16.50
2018-03-21T00:02:18.157Z,16.50
2018-03-21T00:02:49.891Z,16.50
2018-03-21T00:03:21.620Z,16.50
2018-03-21T00:03:54.113Z,16.50
2018-03-21T00:04:25.832Z,16.50
2018-03-21T00:04:57.584Z,16.50
2018-03-21T00:05:29.329Z,16.50
2018-03-21T00:06:01.090Z,16.50
2018-03-21T00:06:32.833Z,16.50
2018-03-21T00:07:04.632Z,16.50
2018-03-21T00:07:36.306Z,16.50
2018-03-21T00:08:08.042Z,16.60
2018-03-21T00:08:39.766Z,16.60
2018-03-21T00:09:12.256Z,16.60
2018-03-21T00:09:43.994Z,16.60
2018-03-21T00:10:15.734Z,16.50
2018-03-21T00:10:47.453Z,16.60
2018-03-21T00:11:19.183Z,16.60
2018-03-21T00:11:50.920Z,16.60
2018-03-21T00:12:22.681Z,16.50
2018-03-21T00:12:54.414Z,16.50
2018-03-21T00:13:26.152Z,16.50
2018-03-21T00:13:57.867Z,16.50
2018-03-21T00:14:29.618Z,16.50
2018-03-21T00:15:01.357Z,16.50
2018-03-21T00:15:33.083Z,16.50
2018-03-21T00:16:04.828Z,16.50
2018-03-21T00:16:36.565Z,16.50
2018-03-21T00:17:08.292Z,16.50
2018-03-21T00:17:40.781Z,16.50
2018-03-21T00:18:12.535Z,16.50
2018-03-21T00:18:44.256Z,16.50
2018-03-21T00:19:16.006Z,16.50
2018-03-21T00:19:47.756Z,16.50
2018-03-21T00:20:19.483Z,16.50
2018-03-21T00:20:52.000Z,16.50
2018-03-21T00:21:23.795Z,16.50
2018-03-21T00:21:55.556Z,16.50
2018-03-21T00:22:27.288Z,16.50
2018-03-21T00:22:59.052Z,16.50
2018-03-21T00:23:30.788Z,16.50
2018-03-21T00:24:02.519Z,16.50
2018-03-21T00:24:34.252Z,16.50
2018-03-21T00:25:06.761Z,16.50
2018-03-21T00:25:38.493Z,16.50
2018-03-21T00:26:10.300Z,16.50
2018-03-21T00:26:42.064Z,16.50
2018-03-21T00:27:13.826Z,16.50
2018-03-21T00:27:45.549Z,16.50
2018-03-21T00:28:17.275Z,16.50
2018-03-21T00:28:49.777Z,16.50
2018-03-21T00:29:21.501Z,16.50
2018-03-21T00:29:53.470Z,16.50
2018-03-21T00:30:25.202Z,16.50
2018-03-21T00:30:56.935Z,16.50
2018-03-21T00:31:29.435Z,16.50
2018-03-21T00:32:01.161Z,16.50
2018-03-21T00:32:32.891Z,16.50
2018-03-21T00:33:04.748Z,16.50
2018-03-21T00:33:36.491Z,16.50
2018-03-21T00:34:08.228Z,16.50
2018-03-21T00:34:39.969Z,16.50
2018-03-21T00:35:12.464Z,16.40
2018-03-21T00:35:44.184Z,16.40
2018-03-21T00:36:15.921Z,16.40
2018-03-21T00:36:47.664Z,16.50
2018-03-21T00:37:19.400Z,16.50
2018-03-21T00:37:51.897Z,16.50
2018-03-21T00:38:23.688Z,16.50
2018-03-21T00:38:55.417Z,16.50
2018-03-21T00:39:27.132Z,16.50
2018-03-21T00:39:58.875Z,16.50
2018-03-21T00:40:30.687Z,16.50
2018-03-21T00:41:02.425Z,16.50
2018-03-21T00:41:34.224Z,16.50
2018-03-21T00:42:05.959Z,16.50
2018-03-21T00:42:37.690Z,16.50
2018-03-21T00:43:09.420Z,16.50
2018-03-21T00:43:41.150Z,16.50
2018-03-21T00:44:13.648Z,16.50
2018-03-21T00:44:45.371Z,16.50
2018-03-21T00:45:17.107Z,16.50
2018-03-21T00:45:49.592Z,16.50
2018-03-21T00:46:21.321Z,16.50
2018-03-21T00:46:53.052Z,16.50
2018-03-21T00:47:24.793Z,16.50
2018-03-21T00:47:57.319Z,16.50
2018-03-21T00:48:29.102Z,16.50
2018-03-21T00:49:01.589Z,16.50
2018-03-21T00:49:33.316Z,16.50
2018-03-21T00:50:05.065Z,16.50
2018-03-21T00:50:36.916Z,16.50
2018-03-21T00:51:09.395Z,16.50
2018-03-21T00:51:41.135Z,16.50
2018-03-21T00:52:12.894Z,16.50
2018-03-21T00:52:44.604Z,16.50
2018-03-21T00:53:16.335Z,16.50
2018-03-21T00:53:48.824Z,16.50
2018-03-21T00:54:20.570Z,16.50
2018-03-21T00:54:52.293Z,16.50
2018-03-21T00:55:24.034Z,16.50
2018-03-21T00:55:55.776Z,16.50
2018-03-21T00:56:28.268Z,16.50
2018-03-21T00:56:59.985Z,16.50
2018-03-21T00:57:31.728Z,16.50
2018-03-21T00:58:04.222Z,16.40
2018-03-21T00:58:35.946Z,16.40
2018-03-21T00:59:07.675Z,16.40
2018-03-21T00:59:40.172Z,16.40
2018-03-21T01:00:11.888Z,16.40
2018-03-21T01:00:43.627Z,16.40
2018-03-21T01:01:16.117Z,16.40
2018-03-21T01:01:47.854Z,16.40
2018-03-21T01:02:19.583Z,16.40
2018-03-21T01:02:52.071Z,16.40
2018-03-21T01:03:23.798Z,16.40
2018-03-21T01:03:55.535Z,16.40
2018-03-21T01:04:27.317Z,16.40
2018-03-21T01:04:59.040Z,16.40
2018-03-21T01:05:30.772Z,16.40
2018-03-21T01:06:02.495Z,16.40
2018-03-21T01:06:34.984Z,16.40
2018-03-21T01:07:06.711Z,16.40
2018-03-21T01:07:39.203Z,16.40
2018-03-21T01:08:10.928Z,16.40
2018-03-21T01:08:42.655Z,16.40
2018-03-21T01:09:15.148Z,16.40
2018-03-21T01:09:46.884Z,16.40
2018-03-21T01:10:18.619Z,16.40
2018-03-21T01:10:51.113Z,16.40
2018-03-21T01:11:22.833Z,16.40
2018-03-21T01:11:54.560Z,16.40
2018-03-21T01:12:26.311Z,16.40
2018-03-21T01:12:58.799Z,16.40
2018-03-21T01:13:30.538Z,16.40
2018-03-21T01:14:02.268Z,16.40
2018-03-21T01:14:34.036Z,16.40
2018-03-21T01:15:05.754Z,16.40
2018-03-21T01:15:38.231Z,16.40
2018-03-21T01:16:09.952Z,16.40
2018-03-21T01:16:41.709Z,16.40
2018-03-21T01:17:13.440Z,16.40
2018-03-21T01:17:45.992Z,16.40
2018-03-21T01:18:17.723Z,16.40
2018-03-21T01:18:49.480Z,16.40
2018-03-21T01:19:21.992Z,16.40
2018-03-21T01:19:53.721Z,16.40
2018-03-21T01:20:25.456Z,16.40
2018-03-21T01:20:57.181Z,16.40
2018-03-21T01:21:29.673Z,16.40
2018-03-21T01:22:01.445Z,16.40
2018-03-21T01:22:33.193Z,16.50
2018-03-21T01:23:04.922Z,16.50
2018-03-21T01:23:36.690Z,16.40
2018-03-21T01:24:08.430Z,16.50
2018-03-21T01:24:40.148Z,16.50
2018-03-21T01:25:11.907Z,16.50
2018-03-21T01:25:43.634Z,16.50
2018-03-21T01:26:15.565Z,16.50
2018-03-21T01:26:47.293Z,16.50
2018-03-21T01:27:19.046Z,16.50
2018-03-21T01:27:50.763Z,16.50
2018-03-21T01:28:22.486Z,16.50
2018-03-21T01:28:54.220Z,16.50
2018-03-21T01:29:25.951Z,16.50
2018-03-21T01:29:57.686Z,16.50
2018-03-21T01:30:29.452Z,16.50
2018-03-21T01:31:01.147Z,16.40
2018-03-21T01:31:32.874Z,16.40
2018-03-21T01:32:04.634Z,16.40
2018-03-21T01:32:37.142Z,16.50
2018-03-21T01:33:08.863Z,16.50
2018-03-21T01:33:40.597Z,16.40
2018-03-21T01:34:12.332Z,16.50
2018-03-21T01:34:44.824Z,16.50
2018-03-21T01:35:16.557Z,16.50
2018-03-21T01:35:48.317Z,16.50
2018-03-21T01:36:20.036Z,16.50
2018-03-21T01:36:51.774Z,16.50
2018-03-21T01:37:24.369Z,16.50
2018-03-21T01:37:56.130Z,16.50
2018-03-21T01:38:27.852Z,16.50
2018-03-21T01:38:59.575Z,16.50
2018-03-21T01:39:31.331Z,16.50
2018-03-21T01:40:03.064Z,16.50
2018-03-21T01:40:34.793Z,16.50
2018-03-21T01:41:07.305Z,16.50
2018-03-21T01:41:39.030Z,16.50
2018-03-21T01:42:10.819Z,16.50
2018-03-21T01:42:42.724Z,16.50
2018-03-21T01:43:14.508Z,16.50
2018-03-21T01:43:46.241Z,16.50
2018-03-21T01:44:18.004Z,16.50
2018-03-21T01:44:49.719Z,16.50
2018-03-21T01:45:21.453Z,16.50
2018-03-21T01:45:53.248Z,16.40
2018-03-21T01:46:25.778Z,16.40
2018-03-21T01:46:57.533Z,16.40
2018-03-21T01:47:29.275Z,16.40
2018-03-21T01:48:00.995Z,16.40
2018-03-21T01:48:32.736Z,16.40
2018-03-21T01:49:04.463Z,16.40
2018-03-21T01:49:36.192Z,16.40
2018-03-21T01:50:08.684Z,16.40
2018-03-21T01:50:40.457Z,16.30
2018-03-21T01:51:12.182Z,16.40
2018-03-21T01:51:43.922Z,16.40
2018-03-21T01:52:15.661Z,16.40
2018-03-21T01:52:47.458Z,16.40
2018-03-21T01:53:19.261Z,16.40
2018-03-21T01:53:50.947Z,16.40
2018-03-21T01:54:22.676Z,16.40
2018-03-21T01:54:54.405Z,16.40
2018-03-21T01:55:26.131Z,16.40
2018-03-21T01:55:57.846Z,16.40
2018-03-21T01:56:29.582Z,16.40
2018-03-21T01:57:02.072Z,16.40
2018-03-21T01:57:33.806Z,16.40
2018-03-21T01:58:05.540Z,16.40
2018-03-21T01:58:37.263Z,16.40
2018-03-21T01:59:08.987Z,16.40
2018-03-21T01:59:40.779Z,16.40
2018-03-21T02:00:12.529Z,16.40
2018-03-21T02:00:44.267Z,16.40
2018-03-21T02:01:16.776Z,16.40
2018-03-21T02:01:48.498Z,16.40
2018-03-21T02:02:20.223Z,16.40
2018-03-21T02:02:51.952Z,16.50
2018-03-21T02:03:24.435Z,16.40
2018-03-21T02:03:56.165Z,16.40
2018-03-21T02:04:27.902Z,16.40
2018-03-21T02:05:00.441Z,16.40
2018-03-21T02:05:32.181Z,16.40
2018-03-21T02:06:04.089Z,16.40
2018-03-21T02:06:35.825Z,16.40
2018-03-21T02:07:07.578Z,16.40
2018-03-21T02:07:39.299Z,16.40
2018-03-21T02:08:11.048Z,16.40
2018-03-21T02:08:42.783Z,16.40
2018-03-21T02:09:15.304Z,16.40
2018-03-21T02:09:47.224Z,16.40
2018-03-21T02:10:19.699Z,16.40
2018-03-21T02:10:51.448Z,16.40
2018-03-21T02:11:23.164Z,16.40
2018-03-21T02:11:54.897Z,16.40
2018-03-21T02:12:26.631Z,16.40
2018-03-21T02:12:59.124Z,16.40
2018-03-21T02:13:30.840Z,16.40
2018-03-21T02:14:02.617Z,16.40
2018-03-21T02:14:34.319Z,16.40
2018-03-21T02:15:06.824Z,16.40
2018-03-21T02:15:38.562Z,16.40
2018-03-21T02:16:10.355Z,16.40
2018-03-21T02:16:42.072Z,16.40
2018-03-21T02:17:13.821Z,16.40
2018-03-21T02:17:45.563Z,16.40
2018-03-21T02:18:17.308Z,16.40
2018-03-21T02:18:49.039Z,16.50
2018-03-21T02:19:20.775Z,16.40
2018-03-21T02:19:52.500Z,16.40
2018-03-21T02:20:24.229Z,16.40
2018-03-21T02:20:56.024Z,16.40
2018-03-21T02:21:27.773Z,16.40
2018-03-21T02:21:59.503Z,16.40
2018-03-21T02:22:31.232Z,16.50
2018-03-21T02:23:02.999Z,16.40
2018-03-21T02:23:34.721Z,16.50
2018-03-21T02:24:06.505Z,16.40
2018-03-21T02:24:38.199Z,16.40
2018-03-21T02:25:09.936Z,16.40
2018-03-21T02:25:41.673Z,16.40
2018-03-21T02:26:14.180Z,16.40
2018-03-21T02:26:45.909Z,16.40
2018-03-21T02:27:17.628Z,16.40
2018-03-21T02:27:49.365Z,16.40
2018-03-21T02:28:21.885Z,16.40
2018-03-21T02:28:53.623Z,16.40
2018-03-21T02:29:25.420Z,16.40
2018-03-21T02:29:57.199Z,16.40
2018-03-21T02:30:28.929Z,16.40
2018-03-21T02:31:00.705Z,16.40
2018-03-21T02:31:32.470Z,16.40
2018-03-21T02:32:04.244Z,16.40
2018-03-21T02:32:36.017Z,16.40
2018-03-21T02:33:07.823Z,16.40
2018-03-21T02:33:40.329Z,16.40
2018-03-21T02:34:12.066Z,16.40
2018-03-21T02:34:43.854Z,16.40
2018-03-21T02:35:15.657Z,16.40
2018-03-21T02:35:47.475Z,16.40
2018-03-21T02:36:19.193Z,16.40
2018-03-21T02:36:51.819Z,16.40
2018-03-21T02:37:23.542Z,16.40
2018-03-21T02:37:55.370Z,16.40
2018-03-21T02:38:27.947Z,16.40
2018-03-21T02:39:00.437Z,16.40
2018-03-21T02:39:32.211Z,16.40
2018-03-21T02:40:03.957Z,16.40
2018-03-21T02:40:35.704Z,16.40
2018-03-21T02:41:07.457Z,16.40
2018-03-21T02:41:39.344Z,16.40
2018-03-21T02:42:11.064Z,16.40
2018-03-21T02:42:42.917Z,16.40
2018-03-21T02:43:14.737Z,16.40
2018-03-21T02:43:46.545Z,16.40
2018-03-21T02:44:18.359Z,16.40
2018-03-21T02:44:50.141Z,16.40
2018-03-21T02:45:22.638Z,16.40
2018-03-21T02:45:54.455Z,16.40
2018-03-21T02:46:26.168Z,16.40
2018-03-21T02:46:57.947Z,16.40
2018-03-21T02:47:29.698Z,16.40
2018-03-21T02:48:02.307Z,16.40
2018-03-21T02:48:34.091Z,16.40
2018-03-21T02:49:05.800Z,16.40
2018-03-21T02:49:37.529Z,16.40
2018-03-21T02:50:09.457Z,16.50
2018-03-21T02:50:41.215Z,16.40
2018-03-21T02:51:12.927Z,16.40
2018-03-21T02:51:45.472Z,16.40
2018-03-21T02:52:17.212Z,16.40
2018-03-21T02:52:48.944Z,16.40
2018-03-21T02:53:20.723Z,16.40
2018-03-21T02:53:53.222Z,16.40
2018-03-21T02:54:25.048Z,16.40
2018-03-21T02:54:57.532Z,16.40
2018-03-21T02:55:29.380Z,16.40
2018-03-21T02:56:01.273Z,16.40
2018-03-21T02:56:33.890Z,16.40
2018-03-21T02:57:05.739Z,16.40
2018-03-21T02:57:37.764Z,16.40
2018-03-21T02:58:09.548Z,16.50
2018-03-21T02:58:41.409Z,16.50
2018-03-21T02:59:13.115Z,16.40
2018-03-21T02:59:44.982Z,16.40
2018-03-21T03:00:16.689Z,16.40
2018-03-21T03:00:48.491Z,16.40
2018-03-21T03:01:20.298Z,16.40
2018-03-21T03:01:52.117Z,16.40
2018-03-21T03:02:24.699Z,16.40
2018-03-21T03:02:56.471Z,16.40
2018-03-21T03:03:28.363Z,16.40
2018-03-21T03:04:00.136Z,16.40
2018-03-21T03:04:31.914Z,16.50
2018-03-21T03:05:03.666Z,16.40
2018-03-21T03:05:35.445Z,16.40
2018-03-21T03:06:07.948Z,16.40
2018-03-21T03:06:39.668Z,16.40
2018-03-21T03:07:11.404Z,16.40
2018-03-21T03:07:43.289Z,16.40
2018-03-21T03:08:15.064Z,16.50
2018-03-21T03:08:46.784Z,16.40
2018-03-21T03:09:18.516Z,16.40
2018-03-21T03:09:50.284Z,16.40
2018-03-21T03:10:22.111Z,16.40
2018-03-21T03:10:53.837Z,16.40
2018-03-21T03:11:25.564Z,16.40
2018-03-21T03:11:58.175Z,16.40
2018-03-21T03:12:29.992Z,16.40
2018-03-21T03:13:01.747Z,16.40
2018-03-21T03:13:34.200Z,16.40
2018-03-21T03:14:05.928Z,16.40
2018-03-21T03:14:37.665Z,16.40
2018-03-21T03:15:10.303Z,16.40
2018-03-21T03:15:42.862Z,16.40
2018-03-21T03:16:14.587Z,16.40
2018-03-21T03:16:46.330Z,16.40
2018-03-21T03:17:18.103Z,16.40
2018-03-21T03:17:49.904Z,16.40
2018-03-21T03:18:21.628Z,16.40
2018-03-21T03:18:53.437Z,16.40
2018-03-21T03:19:25.169Z,16.40
2018-03-21T03:19:56.912Z,16.40
2018-03-21T03:20:28.641Z,16.30
2018-03-21T03:21:00.375Z,16.30
2018-03-21T03:21:32.301Z,16.40
2018-03-21T03:22:04.914Z,16.40
2018-03-21T03:22:36.622Z,16.40
2018-03-21T03:23:08.549Z,16.40
2018-03-21T03:23:40.542Z,16.40
2018-03-21T03:24:12.526Z,16.40
2018-03-21T03:24:44.403Z,16.40
2018-03-21T03:25:16.324Z,16.40
2018-03-21T03:25:48.023Z,16.40
2018-03-21T03:26:19.907Z,16.40
2018-03-21T03:26:51.609Z,16.40
2018-03-21T03:27:23.329Z,16.40
2018-03-21T03:27:55.062Z,16.40
2018-03-21T03:28:27.563Z,16.40
2018-03-21T03:28:59.276Z,16.30
2018-03-21T03:29:31.157Z,16.40
2018-03-21T03:30:02.858Z,16.40
2018-03-21T03:30:35.392Z,16.30
2018-03-21T03:31:07.259Z,16.30
2018-03-21T03:31:39.002Z,16.40
2018-03-21T03:32:10.778Z,16.30
2018-03-21T03:32:43.299Z,16.40
2018-03-21T03:33:15.083Z,16.30
2018-03-21T03:33:46.762Z,16.30
2018-03-21T03:34:18.569Z,16.30
2018-03-21T03:34:50.331Z,16.30
2018-03-21T03:35:22.081Z,16.30
2018-03-21T03:35:53.879Z,16.30
2018-03-21T03:36:26.373Z,16.30
2018-03-21T03:36:58.113Z,16.30
2018-03-21T03:37:29.881Z,16.30
2018-03-21T03:38:01.613Z,16.30
2018-03-21T03:38:33.423Z,16.30
2018-03-21T03:39:05.089Z,16.30
2018-03-21T03:39:36.821Z,16.30
2018-03-21T03:40:09.304Z,16.30
2018-03-21T03:40:41.030Z,16.30
2018-03-21T03:41:12.783Z,16.30
2018-03-21T03:41:44.664Z,16.30
2018-03-21T03:42:16.588Z,16.30
2018-03-21T03:42:48.350Z,16.30
2018-03-21T03:43:20.126Z,16.30
2018-03-21T03:43:51.841Z,16.30
2018-03-21T03:44:23.589Z,16.30
2018-03-21T03:44:55.322Z,16.30
2018-03-21T03:45:27.157Z,16.40
2018-03-21T03:45:58.891Z,16.40
2018-03-21T03:46:30.621Z,16.40
2018-03-21T03:47:03.103Z,16.30
2018-03-21T03:47:34.863Z,16.30
2018-03-21T03:48:06.625Z,16.30
2018-03-21T03:48:39.211Z,16.30
2018-03-21T03:49:10.928Z,16.30
2018-03-21T03:49:42.701Z,16.30
2018-03-21T03:50:14.424Z,16.30
2018-03-21T03:50:46.171Z,16.30
2018-03-21T03:51:17.955Z,16.30
2018-03-21T03:51:50.480Z,16.30
2018-03-21T03:52:22.216Z,16.30
2018-03-21T03:52:53.948Z,16.30
2018-03-21T03:53:25.694Z,16.30
2018-03-21T03:53:57.493Z,16.30
2018-03-21T03:54:29.980Z,16.30
2018-03-21T03:55:01.771Z,16.30
2018-03-21T03:55:33.549Z,16.30
2018-03-21T03:56:05.272Z,16.30
2018-03-21T03:56:37.072Z,16.30
2018-03-21T03:57:09.542Z,16.30
2018-03-21T03:57:41.304Z,16.30
2018-03-21T03:58:13.047Z,16.30
2018-03-21T03:58:44.796Z,16.30
2018-03-21T03:59:16.524Z,16.30
2018-03-21T03:59:48.254Z,16.30
2018-03-21T04:00:19.994Z,16.30
2018-03-21T04:00:51.757Z,16.30
2018-03-21T04:01:23.494Z,16.30
2018-03-21T04:01:55.232Z,16.30
2018-03-21T04:02:26.963Z,16.30
2018-03-21T04:02:58.691Z,16.30
2018-03-21T04:03:30.465Z,16.30
2018-03-21T04:04:02.965Z,16.40
2018-03-21T04:04:34.696Z,16.40
2018-03-21T04:05:06.443Z,16.40
2018-03-21T04:05:38.164Z,16.40
2018-03-21T04:06:09.916Z,16.40
2018-03-21T04:06:41.655Z,16.40
2018-03-21T04:07:13.376Z,16.40
2018-03-21T04:07:45.116Z,16.40
2018-03-21T04:08:17.087Z,16.40
2018-03-21T04:08:48.790Z,16.40
2018-03-21T04:09:21.421Z,16.40
2018-03-21T04:09:53.860Z,16.40
2018-03-21T04:10:25.587Z,16.40
2018-03-21T04:10:57.300Z,16.40
2018-03-21T04:11:29.824Z,16.30
2018-03-21T04:12:01.645Z,16.30
2018-03-21T04:12:33.345Z,16.40
2018-03-21T04:13:05.848Z,16.40
2018-03-21T04:13:37.627Z,16.40
2018-03-21T04:14:09.314Z,16.30
2018-03-21T04:14:41.043Z,16.30
2018-03-21T04:15:13.549Z,16.30
2018-03-21T04:15:45.282Z,16.30
2018-03-21T04:16:17.013Z,16.30
2018-03-21T04:16:48.783Z,16.30
2018-03-21T04:17:20.526Z,16.30
2018-03-21T04:17:52.269Z,16.30
2018-03-21T04:18:23.998Z,16.30
2018-03-21T04:18:55.731Z,16.30
2018-03-21T04:19:27.455Z,16.30
2018-03-21T04:19:59.962Z,16.30
2018-03-21T04:20:31.739Z,16.30
2018-03-21T04:21:03.448Z,16.30
2018-03-21T04:21:35.197Z,16.30
2018-03-21T04:22:06.953Z,16.30
2018-03-21T04:22:38.669Z,16.30
2018-03-21T04:23:10.442Z,16.30
2018-03-21T04:23:42.123Z,16.30
2018-03-21T04:24:14.634Z,16.30
2018-03-21T04:24:46.352Z,16.30
2018-03-21T04:25:18.092Z,16.30
2018-03-21T04:25:49.815Z,16.30
2018-03-21T04:26:21.527Z,16.30
2018-03-21T04:26:53.264Z,16.40
2018-03-21T04:27:25.041Z,16.40
2018-03-21T04:27:56.763Z,16.40
2018-03-21T04:28:28.505Z,16.40
2018-03-21T04:29:00.241Z,16.40
2018-03-21T04:29:31.976Z,16.40
2018-03-21T04:30:03.720Z,16.40
2018-03-21T04:30:35.459Z,16.40
2018-03-21T04:31:07.219Z,16.40
2018-03-21T04:31:38.953Z,16.40
2018-03-21T04:32:10.681Z,16.40
2018-03-21T04:32:42.428Z,16.40
2018-03-21T04:33:14.163Z,16.40
2018-03-21T04:33:45.902Z,16.40
2018-03-21T04:34:17.620Z,16.40
2018-03-21T04:34:50.137Z,16.40
2018-03-21T04:35:21.982Z,16.40
2018-03-21T04:35:53.681Z,16.40
2018-03-21T04:36:26.192Z,16.40
2018-03-21T04:36:57.932Z,16.40
2018-03-21T04:37:29.674Z,16.40
2018-03-21T04:38:01.408Z,16.40
2018-03-21T04:38:33.221Z,16.40
2018-03-21T04:39:05.713Z,16.40
2018-03-21T04:39:37.445Z,16.40
2018-03-21T04:40:09.934Z,16.40
2018-03-21T04:40:41.690Z,16.40
2018-03-21T04:41:13.422Z,16.40
2018-03-21T04:41:45.163Z,16.30
2018-03-21T04:42:16.903Z,16.30
2018-03-21T04:42:48.645Z,16.30
2018-03-21T04:43:20.377Z,16.30
2018-03-21T04:43:52.966Z,16.30
2018-03-21T04:44:24.682Z,16.30
2018-03-21T04:44:56.420Z,16.30
2018-03-21T04:45:28.195Z,16.30
2018-03-21T04:46:00.009Z,16.30
2018-03-21T04:46:32.498Z,16.30
2018-03-21T04:47:04.249Z,16.30
2018-03-21T04:47:35.989Z,16.30
2018-03-21T04:48:07.721Z,16.30
2018-03-21T04:48:39.459Z,16.40
2018-03-21T04:49:11.196Z,16.40
2018-03-21T04:49:43.689Z,16.40
2018-03-21T04:50:15.419Z,16.40
2018-03-21T04:50:47.151Z,16.40
2018-03-21T04:51:19.138Z,16.40
2018-03-21T04:51:50.980Z,16.40
2018-03-21T04:52:22.692Z,16.30
2018-03-21T04:52:54.425Z,16.30
2018-03-21T04:53:26.951Z,16.30
2018-03-21T04:53:58.675Z,16.30
2018-03-21T04:54:30.424Z,16.30
2018-03-21T04:55:02.257Z,16.40
2018-03-21T04:55:33.959Z,16.40
2018-03-21T04:56:06.456Z,16.40
2018-03-21T04:56:38.181Z,16.30
2018-03-21T04:57:09.909Z,16.40
2018-03-21T04:57:42.416Z,16.40
2018-03-21T04:58:14.145Z,16.40
2018-03-21T04:58:45.887Z,16.30
2018-03-21T04:59:17.634Z,16.40
2018-03-21T04:59:49.355Z,16.30
2018-03-21T05:00:21.108Z,16.30
2018-03-21T05:00:52.840Z,16.30
2018-03-21T05:01:25.328Z,16.30
2018-03-21T05:01:57.097Z,16.30
2018-03-21T05:02:28.811Z,16.30
2018-03-21T05:03:00.530Z,16.20
2018-03-21T05:03:33.030Z,16.20
2018-03-21T05:04:04.916Z,16.20
2018-03-21T05:04:36.642Z,16.20
2018-03-21T05:05:08.365Z,16.20
2018-03-21T05:05:40.111Z,16.20
2018-03-21T05:06:11.932Z,16.20
2018-03-21T05:06:43.672Z,16.30
2018-03-21T05:07:15.409Z,16.30
2018-03-21T05:07:47.194Z,16.20
2018-03-21T05:08:18.907Z,16.30
2018-03-21T05:08:50.640Z,16.30
2018-03-21T05:09:22.434Z,16.30
2018-03-21T05:09:54.929Z,16.30
2018-03-21T05:10:26.652Z,16.30
2018-03-21T05:10:58.388Z,16.30
2018-03-21T05:11:30.123Z,16.30
2018-03-21T05:12:02.632Z,16.30
2018-03-21T05:12:34.375Z,16.30
2018-03-21T05:13:06.108Z,16.30
2018-03-21T05:13:37.880Z,16.30
2018-03-21T05:14:09.611Z,16.30
2018-03-21T05:14:41.332Z,16.30
2018-03-21T05:15:13.078Z,16.30
2018-03-21T05:15:44.791Z,16.30
2018-03-21T05:16:17.295Z,16.30
2018-03-21T05:16:49.036Z,16.30
2018-03-21T05:17:20.752Z,16.30
2018-03-21T05:17:53.234Z,16.30
2018-03-21T05:18:24.968Z,16.20
2018-03-21T05:18:56.688Z,16.30
2018-03-21T05:19:29.186Z,16.30
2018-03-21T05:20:00.935Z,16.30
2018-03-21T05:20:32.687Z,16.30
2018-03-21T05:21:04.409Z,16.30
2018-03-21T05:21:36.131Z,16.30
2018-03-21T05:22:08.659Z,16.30
2018-03-21T05:22:40.382Z,16.30
2018-03-21T05:23:12.109Z,16.30
2018-03-21T05:23:43.851Z,16.30
2018-03-21T05:24:15.589Z,16.30
2018-03-21T05:24:48.072Z,16.30
2018-03-21T05:25:19.796Z,16.30
2018-03-21T05:25:51.538Z,16.30
2018-03-21T05:26:23.264Z,16.30
2018-03-21T05:26:55.853Z,16.30
2018-03-21T05:27:27.718Z,16.30
2018-03-21T05:28:00.204Z,16.30
2018-03-21T05:28:31.932Z,16.30
2018-03-21T05:29:03.663Z,16.30
2018-03-21T05:29:35.387Z,16.30
2018-03-21T05:30:07.116Z,16.20
2018-03-21T05:30:39.651Z,16.30
2018-03-21T05:31:11.409Z,16.20
2018-03-21T05:31:43.131Z,16.20
2018-03-21T05:32:14.860Z,16.20
2018-03-21T05:32:46.592Z,16.30
2018-03-21T05:33:18.337Z,16.30
2018-03-21T05:33:50.089Z,16.30
2018-03-21T05:34:21.840Z,16.30
2018-03-21T05:34:53.566Z,16.40
2018-03-21T05:35:25.283Z,16.40
2018-03-21T05:35:57.031Z,16.50
2018-03-21T05:36:29.513Z,16.60
2018-03-21T05:37:01.251Z,16.50
2018-03-21T05:37:32.995Z,16.60
2018-03-21T05:38:04.734Z,16.60
2018-03-21T05:38:36.472Z,16.70
2018-03-21T05:39:08.209Z,16.80
2018-03-21T05:39:39.947Z,16.80
2018-03-21T05:40:12.444Z,16.80
2018-03-21T05:40:44.172Z,16.80
2018-03-21T05:41:15.926Z,16.90
2018-03-21T05:41:47.797Z,16.90
2018-03-21T05:42:19.555Z,16.90
2018-03-21T05:42:51.260Z,17.00
2018-03-21T05:43:23.025Z,17.00
2018-03-21T05:43:54.733Z,17.00
2018-03-21T05:44:26.482Z,17.10
2018-03-21T05:44:58.206Z,17.10
2018-03-21T05:45:30.690Z,17.10
2018-03-21T05:46:02.457Z,17.10
2018-03-21T05:46:34.308Z,17.20
2018-03-21T05:47:06.005Z,17.20
2018-03-21T05:47:38.501Z,17.20
2018-03-21T05:48:10.251Z,17.20
2018-03-21T05:48:41.962Z,17.20
2018-03-21T05:49:13.733Z,17.30
2018-03-21T05:49:45.469Z,17.20
2018-03-21T05:50:17.213Z,17.30
2018-03-21T05:50:48.944Z,17.30
2018-03-21T05:51:20.705Z,17.30
2018-03-21T05:51:52.467Z,17.30
2018-03-21T05:52:24.240Z,17.30
2018-03-21T05:52:56.004Z,17.30
2018-03-21T05:53:27.742Z,17.40
2018-03-21T05:53:59.506Z,17.40
2018-03-21T05:54:32.043Z,17.40
2018-03-21T05:55:03.808Z,17.40
2018-03-21T05:55:36.299Z,17.40
2018-03-21T05:56:08.045Z,17.40
2018-03-21T05:56:39.774Z,17.40
2018-03-21T05:57:11.553Z,17.40
2018-03-21T05:57:43.301Z,17.40
2018-03-21T05:58:15.144Z,17.40
2018-03-21T05:58:46.896Z,17.40
2018-03-21T05:59:18.655Z,17.40
2018-03-21T05:59:50.404Z,17.40
2018-03-21T06:00:22.150Z,17.40
2018-03-21T06:00:53.880Z,17.40
2018-03-21T06:01:25.621Z,17.40
2018-03-21T06:01:57.354Z,17.40
2018-03-21T06:02:29.076Z,17.40
2018-03-21T06:03:00.815Z,17.40
2018-03-21T06:03:32.550Z,17.40
2018-03-21T06:04:05.052Z,17.40
2018-03-21T06:04:36.790Z,17.40
2018-03-21T06:05:08.516Z,17.40
2018-03-21T06:05:40.241Z,17.40
2018-03-21T06:06:12.755Z,17.30
2018-03-21T06:06:44.484Z,17.30
2018-03-21T06:07:16.225Z,17.30
2018-03-21T06:07:47.953Z,17.30
2018-03-21T06:08:19.676Z,17.40
2018-03-21T06:08:52.196Z,17.30
2018-03-21T06:09:23.928Z,17.40
2018-03-21T06:09:55.661Z,17.40
2018-03-21T06:10:27.383Z,17.40
2018-03-21T06:10:59.124Z,17.40
2018-03-21T06:11:30.854Z,17.40
2018-03-21T06:12:03.356Z,17.40
2018-03-21T06:12:35.104Z,17.40
2018-03-21T06:13:06.843Z,17.50
2018-03-21T06:13:38.572Z,17.50
2018-03-21T06:14:10.335Z,17.50
2018-03-21T06:14:42.052Z,17.50
2018-03-21T06:15:13.804Z,17.50
2018-03-21T06:15:45.544Z,17.50
2018-03-21T06:16:17.526Z,17.50
2018-03-21T06:16:49.229Z,17.50
2018-03-21T06:17:20.985Z,17.50
2018-03-21T06:22:42.879Z,17.50
2018-03-21T06:23:14.624Z,17.20
2018-03-21T06:23:46.360Z,17.20
2018-03-21T06:24:18.086Z,17.20
2018-03-21T06:24:49.810Z,17.20
2018-03-21T06:25:21.567Z,17.20
2018-03-21T06:25:53.308Z,17.20
2018-03-21T06:26:25.036Z,17.20
2018-03-21T06:26:56.767Z,17.20
2018-03-21T06:27:28.530Z,17.20
2018-03-21T06:28:00.256Z,17.20
2018-03-21T06:28:32.779Z,17.30
2018-03-21T06:29:04.498Z,17.30
2018-03-21T06:29:36.222Z,17.30
2018-03-21T06:30:07.946Z,17.30
2018-03-21T06:30:40.438Z,17.30
2018-03-21T06:31:12.171Z,17.30
2018-03-21T06:31:44.686Z,17.30
2018-03-21T06:32:16.395Z,17.30
2018-03-21T06:32:48.132Z,17.30
2018-03-21T06:33:19.890Z,17.30
2018-03-21T06:33:51.667Z,17.30
2018-03-21T06:34:23.400Z,17.30
2018-03-21T06:34:55.143Z,17.30
2018-03-21T06:35:26.886Z,17.30
2018-03-21T06:35:58.618Z,17.30
2018-03-21T06:36:30.348Z,17.30
2018-03-21T06:37:02.077Z,17.40
2018-03-21T06:37:33.796Z,17.40
2018-03-21T06:38:06.289Z,17.40
2018-03-21T06:38:38.031Z,17.40
2018-03-21T06:39:09.773Z,17.40
2018-03-21T06:39:41.496Z,17.40
2018-03-21T06:40:13.986Z,17.40
2018-03-21T06:40:45.718Z,17.40
2018-03-21T06:41:17.442Z,17.30
2018-03-21T06:41:49.936Z,17.40
2018-03-21T06:42:21.673Z,17.30
2018-03-21T06:42:53.400Z,17.30
2018-03-21T06:43:25.921Z,17.40
2018-03-21T06:43:57.675Z,17.30
2018-03-21T06:44:29.398Z,17.40
2018-03-21T06:45:01.142Z,17.40
2018-03-21T06:45:32.882Z,17.40
2018-03-21T06:46:04.621Z,17.40
2018-03-21T06:46:37.161Z,17.40
2018-03-21T06:47:08.854Z,17.40
2018-03-21T06:47:40.584Z,17.40
2018-03-21T06:48:12.320Z,17.40
2018-03-21T06:48:44.062Z,17.30
2018-03-21T06:49:15.817Z,17.40
2018-03-21T06:49:47.543Z,17.30
2018-03-21T06:50:19.273Z,17.30
2018-03-21T06:50:50.985Z,17.40
2018-03-21T06:51:23.502Z,17.30
2018-03-21T06:51:55.229Z,17.30
2018-03-21T06:52:26.960Z,17.30
2018-03-21T06:52:58.692Z,17.30
2018-03-21T06:53:31.201Z,17.30
2018-03-21T06:54:02.921Z,17.40
2018-03-21T06:54:34.641Z,17.40
2018-03-21T06:55:07.190Z,17.40